Time;durP1;ratioP1;P1;durP2;ratioP2;P2;SDS_P1;SDS_P2;PMS_P1;PMS_P2;Temp;Humidity;BMP_temperature;BMP_pressure;BME280_temperature;BME280_humidity;BME280_pressure;Samples;Min_cycle;Max_cycle;Signal;HPM_P1;HPM_P2
2022/09/28 00:00:27;;;;;;;1.38;0.20;;;8.70;99.90;;;;;;4990222;28;20486;-72
2022/09/28 00:02:56;;;;;;;0.93;0.45;;;8.60;99.90;;;;;;4992007;28;20125;-70
2022/09/28 00:05:25;;;;;;;5.68;0.40;;;8.60;99.90;;;;;;4973154;28;20035;-71
2022/09/28 00:07:55;;;;;;;0.68;0.25;;;8.60;99.90;;;;;;4973965;28;20912;-69
2022/09/28 00:10:21;;;;;;;1.75;0.30;;;8.60;99.90;;;;;;4990102;28;20487;-70
2022/09/28 00:12:51;;;;;;;1.30;0.73;;;8.50;99.90;;;;;;4991629;28;20088;-70
2022/09/28 00:15:17;;;;;;;4.13;0.50;;;8.50;99.90;;;;;;4990476;28;20031;-70
2022/09/28 00:17:46;;;;;;;1.10;0.20;;;8.50;99.90;;;;;;4990163;28;20652;-70
2022/09/28 00:20:12;;;;;;;4.00;0.45;;;8.50;99.90;;;;;;4990883;28;20034;-70
2022/09/28 00:22:38;;;;;;;1.65;0.47;;;8.60;99.90;;;;;;4979020;28;20035;-70
2022/09/28 00:25:05;;;;;;;5.30;0.50;;;8.60;99.90;;;;;;4971904;28;20037;-69
2022/09/28 00:27:30;;;;;;;1.38;0.25;;;8.70;99.90;;;;;;4991387;28;20034;-70
2022/09/28 00:29:57;;;;;;;7.13;1.40;;;8.70;99.90;;;;;;4980391;28;20045;-71
2022/09/28 00:32:23;;;;;;;0.40;0.20;;;8.70;99.90;;;;;;4971708;28;20034;-71
2022/09/28 00:34:50;;;;;;;1.40;0.20;;;8.70;99.90;;;;;;4972161;28;20038;-70
2022/09/28 00:37:17;;;;;;;1.48;0.20;;;8.70;99.90;;;;;;4977584;28;20042;-71
2022/09/28 00:39:43;;;;;;;1.27;0.20;;;8.80;99.90;;;;;;4991626;28;20030;-70
2022/09/28 00:42:18;;;;;;;1.25;0.30;;;8.80;99.90;;;;;;4991028;28;20022;-70
2022/09/28 00:45:02;;;;;;;1.40;0.30;;;8.80;99.90;;;;;;4985441;28;20034;-72
2022/09/28 00:47:53;;;;;;;3.03;0.50;;;8.80;99.90;;;;;;4981322;28;20038;-68
2022/09/28 00:50:32;;;;;;;1.17;0.20;;;8.80;99.90;;;;;;4984406;28;20046;-71
2022/09/28 00:53:23;;;;;;;1.60;0.20;;;8.80;99.90;;;;;;4991021;28;20026;-69
2022/09/28 00:55:53;;;;;;;2.42;0.40;;;8.80;99.90;;;;;;4976760;28;20034;-72
2022/09/28 00:58:23;;;;;;;1.20;0.50;;;8.80;99.90;;;;;;4987285;28;20042;-73
2022/09/28 01:00:49;;;;;;;0.65;0.35;;;8.80;99.90;;;;;;4976165;28;20030;-72
2022/09/28 01:03:16;;;;;;;2.88;0.52;;;8.80;99.90;;;;;;4990445;28;20390;-69
2022/09/28 01:05:43;;;;;;;2.17;0.93;;;8.80;99.90;;;;;;4989623;28;20527;-70
2022/09/28 01:08:10;;;;;;;4.70;0.88;;;8.80;99.90;;;;;;4971728;28;20454;-70
2022/09/28 01:10:37;;;;;;;3.20;0.80;;;8.80;99.90;;;;;;4970102;28;20027;-71
2022/09/28 01:13:03;;;;;;;2.45;0.90;;;8.80;99.90;;;;;;4970121;28;20043;-69
2022/09/28 01:15:33;;;;;;;4.43;0.98;;;8.80;99.90;;;;;;4981854;28;20038;-69
2022/09/28 01:18:08;;;;;;;5.50;1.10;;;8.80;99.90;;;;;;4982624;28;20041;-69
2022/09/28 01:20:59;;;;;;;1.90;0.90;;;8.80;99.90;;;;;;4971144;28;20023;-69
2022/09/28 01:23:49;;;;;;;5.53;1.40;;;8.80;99.90;;;;;;4969320;28;20086;-70
2022/09/28 01:27:04;;;;;;;8.23;0.70;;;8.80;99.90;;;;;;4981299;28;20042;-69
2022/09/28 01:30:04;;;;;;;4.85;1.98;;;8.80;99.90;;;;;;4990222;28;20030;-69
2022/09/28 01:32:42;;;;;;;;;;;8.70;99.90;;;;;;4968607;28;20046;-71
2022/09/28 01:35:14;;;;;;;5.03;0.63;;;8.70;99.90;;;;;;4950577;28;20345;-71
2022/09/28 01:37:45;;;;;;;3.30;1.05;;;8.70;99.90;;;;;;4953900;28;20028;-70
2022/09/28 01:40:13;;;;;;;0.90;0.47;;;8.70;99.90;;;;;;4984134;28;20497;-71
2022/09/28 01:42:43;;;;;;;4.13;1.35;;;8.70;99.90;;;;;;4988559;28;20038;-69
2022/09/28 01:45:30;;;;;;;3.72;0.50;;;8.60;99.90;;;;;;4979759;28;20030;-70
2022/09/28 01:48:00;;;;;;;1.33;0.22;;;8.60;99.90;;;;;;4973758;28;20384;-71
2022/09/28 01:50:28;;;;;;;;;;;8.60;99.90;;;;;;4956743;28;20057;-72
2022/09/28 01:53:22;;;;;;;3.10;0.40;;;8.60;99.90;;;;;;4978095;28;19917;-69
2022/09/28 01:55:54;;;;;;;4.53;0.50;;;8.50;99.90;;;;;;4961567;28;20035;-70
2022/09/28 01:58:41;;;;;;;2.58;1.00;;;8.40;99.90;;;;;;4974303;28;20039;-70
2022/09/28 02:01:35;;;;;;;2.35;0.40;;;8.50;99.90;;;;;;4973697;28;20097;-70
2022/09/28 02:04:25;;;;;;;2.03;0.47;;;8.40;99.90;;;;;;4949387;28;20050;-70
2022/09/28 02:07:05;;;;;;;1.85;0.32;;;8.40;99.90;;;;;;4951191;28;20035;-71
2022/09/28 02:09:37;;;;;;;1.00;0.13;;;8.30;99.90;;;;;;4981843;28;20639;-71
2022/09/28 02:12:13;;;;;;;0.93;0.20;;;8.40;99.90;;;;;;4969244;28;20069;-70
2022/09/28 02:14:42;;;;;;;1.33;0.10;;;8.40;99.90;;;;;;4970179;28;20117;-70
2022/09/28 02:17:09;;;;;;;2.42;0.20;;;8.40;99.90;;;;;;4970176;28;20058;-70
2022/09/28 02:19:34;;;;;;;0.40;0.10;;;8.40;99.90;;;;;;4970294;28;20118;-70
2022/09/28 02:22:00;;;;;;;0.98;0.10;;;8.30;99.90;;;;;;4969006;28;20113;-71
2022/09/28 02:24:58;;;;;;;3.40;0.00;;;8.40;99.90;;;;;;4972421;28;20034;-69
2022/09/28 02:27:43;;;;;;;0.63;0.00;;;8.40;99.90;;;;;;4957361;28;20049;-70
2022/09/28 02:30:10;;;;;;;0.95;0.00;;;8.40;99.90;;;;;;4989475;28;20035;-70
2022/09/28 02:32:39;;;;;;;3.10;0.65;;;8.40;99.90;;;;;;4992503;28;20153;-70
2022/09/28 02:35:14;;;;;;;0.63;0.03;;;8.40;99.90;;;;;;4993257;28;20031;-72
2022/09/28 02:37:40;;;;;;;0.82;0.20;;;8.40;99.90;;;;;;4978525;28;20129;-70
2022/09/28 02:40:13;;;;;;;0.47;0.03;;;8.40;99.90;;;;;;4977552;28;20121;-70
2022/09/28 02:43:12;;;;;;;0.55;0.05;;;8.40;99.90;;;;;;4982802;28;20046;-70
2022/09/28 02:45:55;;;;;;;2.40;0.10;;;8.40;99.90;;;;;;4992758;28;20035;-69
2022/09/28 02:48:42;;;;;;;3.00;0.22;;;8.40;99.90;;;;;;4993336;28;20026;-70
2022/09/28 02:51:24;;;;;;;1.38;0.40;;;8.50;99.90;;;;;;4992861;28;20514;-71
2022/09/28 02:53:57;;;;;;;0.45;0.10;;;8.50;99.90;;;;;;4990154;28;20395;-71
2022/09/28 02:56:50;;;;;;;0.50;0.03;;;8.50;99.90;;;;;;4977260;28;20070;-72
2022/09/28 02:59:28;;;;;;;0.30;0.08;;;8.60;99.90;;;;;;4988440;28;20054;-70
2022/09/28 03:02:19;;;;;;;1.60;0.10;;;8.60;99.90;;;;;;4993189;28;20121;-69
2022/09/28 03:05:13;;;;;;;0.32;0.00;;;8.60;99.90;;;;;;4959193;28;20065;-70
2022/09/28 03:07:58;;;;;;;0.98;0.03;;;8.60;99.90;;;;;;4954254;28;20402;-71
2022/09/28 03:10:36;;;;;;;3.72;0.10;;;8.60;99.90;;;;;;4953664;28;20055;-71
2022/09/28 03:13:03;;;;;;;1.95;0.10;;;8.50;99.90;;;;;;4963697;28;20154;-71
2022/09/28 03:15:31;;;;;;;0.40;0.05;;;8.50;99.90;;;;;;4992717;28;20115;-70
2022/09/28 03:17:57;;;;;;;1.90;0.20;;;8.50;99.90;;;;;;4992956;28;20026;-70
2022/09/28 03:20:23;;;;;;;3.97;0.52;;;8.50;99.90;;;;;;4992646;28;20027;-70
2022/09/28 03:22:49;;;;;;;0.35;0.10;;;8.50;99.90;;;;;;4992765;28;20045;-69
2022/09/28 03:25:15;;;;;;;0.65;0.10;;;8.50;99.90;;;;;;4992422;28;20034;-70
2022/09/28 03:27:41;;;;;;;1.40;0.75;;;8.50;99.90;;;;;;4992673;28;20161;-72
2022/09/28 03:30:07;;;;;;;2.30;0.20;;;8.60;99.90;;;;;;4991173;28;20433;-70
2022/09/28 03:32:33;;;;;;;2.42;0.15;;;8.60;99.90;;;;;;4991137;28;20533;-70
2022/09/28 03:34:59;;;;;;;2.85;0.30;;;8.60;99.90;;;;;;4991252;28;20150;-71
2022/09/28 03:37:26;;;;;;;0.63;0.10;;;8.60;99.90;;;;;;4992027;28;20688;-70
2022/09/28 03:39:51;;;;;;;0.28;0.10;;;8.50;99.90;;;;;;4984387;28;20108;-70
2022/09/28 03:42:17;;;;;;;3.60;0.20;;;8.50;99.90;;;;;;4971123;28;20488;-71
2022/09/28 03:44:43;;;;;;;3.13;0.50;;;8.50;99.90;;;;;;4991627;28;20042;-69
2022/09/28 03:47:09;;;;;;;0.38;0.20;;;8.40;99.90;;;;;;4978024;28;20041;-70
2022/09/28 03:49:34;;;;;;;0.10;0.00;;;8.40;99.90;;;;;;4992618;28;20066;-70
2022/09/28 03:52:01;;;;;;;0.45;0.10;;;8.40;99.90;;;;;;4992378;28;20058;-70
2022/09/28 03:54:26;;;;;;;0.10;0.00;;;8.40;99.90;;;;;;4990329;28;20050;-70
2022/09/28 03:56:52;;;;;;;0.40;0.00;;;8.30;99.90;;;;;;4974924;28;20038;-71
2022/09/28 03:59:18;;;;;;;1.38;0.00;;;8.30;99.90;;;;;;4972418;28;20031;-70
2022/09/28 04:01:43;;;;;;;0.43;0.00;;;8.30;99.90;;;;;;4972940;28;20502;-70
2022/09/28 04:04:12;;;;;;;0.17;0.00;;;8.20;99.90;;;;;;4973086;28;20035;-71
2022/09/28 04:06:38;;;;;;;0.30;0.00;;;8.20;99.90;;;;;;4974360;28;20097;-71
2022/09/28 04:09:04;;;;;;;0.20;0.10;;;8.20;99.90;;;;;;4971480;28;20039;-71
2022/09/28 04:11:29;;;;;;;1.27;0.10;;;8.20;99.90;;;;;;4970942;28;20034;-72
2022/09/28 04:13:55;;;;;;;1.05;0.10;;;8.20;99.90;;;;;;4972757;28;20109;-72
2022/09/28 04:16:21;;;;;;;0.55;0.20;;;8.20;99.90;;;;;;4972283;28;20034;-70
2022/09/28 04:18:47;;;;;;;0.73;0.20;;;8.20;99.90;;;;;;4972684;28;20023;-70
2022/09/28 04:21:15;;;;;;;1.20;0.10;;;8.10;99.90;;;;;;4977627;28;20409;-71
2022/09/28 04:23:40;;;;;;;0.95;0.10;;;8.10;99.90;;;;;;4991839;28;20111;-71
2022/09/28 04:26:16;;;;;;;0.40;0.10;;;8.10;99.90;;;;;;4989937;28;20609;-70
2022/09/28 04:31:40;;;;;;;0.70;0.30;;;8.20;99.90;;;;;;4982017;28;20041;-71
2022/09/28 04:34:07;;;;;;;1.58;0.20;;;8.20;99.90;;;;;;4970394;28;20038;-69
2022/09/28 04:36:32;;;;;;;1.92;0.95;;;8.20;99.90;;;;;;4972355;28;20042;-72
2022/09/28 04:38:58;;;;;;;1.02;0.40;;;8.20;99.90;;;;;;4972191;28;20610;-71
2022/09/28 04:41:25;;;;;;;3.00;0.80;;;8.20;99.90;;;;;;4983661;28;20435;-70
2022/09/28 04:43:51;;;;;;;1.20;0.20;;;8.30;99.90;;;;;;4971928;28;20062;-69
2022/09/28 04:46:17;;;;;;;0.40;0.10;;;8.30;99.90;;;;;;4973832;28;20062;-71
2022/09/28 04:48:44;;;;;;;0.40;0.10;;;8.40;99.90;;;;;;4978246;28;20041;-71
2022/09/28 04:51:09;;;;;;;0.43;0.20;;;8.40;99.90;;;;;;4979289;28;20061;-71
2022/09/28 04:53:35;;;;;;;0.30;0.08;;;8.40;99.90;;;;;;4978684;28;20054;-70
2022/09/28 04:56:03;;;;;;;0.10;0.00;;;8.40;99.90;;;;;;4979916;28;20026;-70
2022/09/28 04:58:30;;;;;;;0.40;0.10;;;8.40;99.90;;;;;;4978733;28;20062;-71
2022/09/28 05:01:02;;;;;;;0.10;0.00;;;8.40;99.90;;;;;;4980232;28;20060;-70
2022/09/28 05:03:28;;;;;;;0.30;0.10;;;8.40;99.90;;;;;;4977921;28;20038;-71
2022/09/28 05:05:53;;;;;;;0.32;0.10;;;8.40;99.90;;;;;;4982133;28;20040;-70
2022/09/28 05:08:19;;;;;;;0.55;0.10;;;8.40;99.90;;;;;;4977363;28;20041;-71
2022/09/28 05:10:45;;;;;;;0.20;0.10;;;8.40;99.90;;;;;;4982199;28;20038;-71
2022/09/28 05:13:12;;;;;;;0.95;0.13;;;8.40;99.90;;;;;;4978825;28;20031;-73
2022/09/28 05:15:39;;;;;;;2.05;0.65;;;8.40;99.90;;;;;;4981841;28;20069;-70
2022/09/28 05:18:05;;;;;;;0.38;0.20;;;8.40;99.90;;;;;;4979758;28;20035;-70
2022/09/28 05:20:31;;;;;;;0.75;0.10;;;8.40;99.90;;;;;;4980577;28;20031;-70
2022/09/28 05:22:57;;;;;;;2.42;0.10;;;8.40;99.90;;;;;;4979308;28;20046;-70
2022/09/28 05:25:23;;;;;;;0.55;0.17;;;8.50;99.90;;;;;;4981967;28;20068;-71
2022/09/28 05:27:56;;;;;;;1.38;0.17;;;8.40;99.90;;;;;;4978111;28;20038;-71
2022/09/28 05:30:23;;;;;;;0.22;0.08;;;8.40;99.90;;;;;;4980193;28;20037;-71
2022/09/28 05:32:52;;;;;;;1.77;0.08;;;8.40;99.90;;;;;;4981446;28;20034;-70
2022/09/28 05:35:18;;;;;;;0.57;0.08;;;8.40;99.90;;;;;;4981210;28;20081;-70
2022/09/28 05:37:43;;;;;;;1.70;0.10;;;8.30;99.90;;;;;;4978144;28;20152;-71
2022/09/28 05:40:09;;;;;;;0.38;0.10;;;8.30;99.90;;;;;;4978540;28;20030;-70
2022/09/28 05:42:35;;;;;;;4.03;1.20;;;8.30;99.90;;;;;;4985285;28;20487;-70
2022/09/28 05:45:02;;;;;;;0.52;0.32;;;8.20;99.90;;;;;;4981797;28;20026;-72
2022/09/28 05:47:28;;;;;;;0.55;0.10;;;8.20;99.90;;;;;;4981485;28;20033;-71
2022/09/28 05:49:55;;;;;;;0.40;0.00;;;8.20;99.90;;;;;;4979214;28;20483;-71
2022/09/28 05:52:20;;;;;;;0.93;0.20;;;8.20;99.90;;;;;;4978432;28;20073;-70
2022/09/28 05:54:46;;;;;;;0.88;0.13;;;8.10;99.90;;;;;;4980279;28;20038;-70
2022/09/28 05:57:13;;;;;;;0.40;0.10;;;8.10;99.90;;;;;;4968978;28;20499;-71
2022/09/28 05:59:39;;;;;;;7.28;0.30;;;8.00;99.90;;;;;;4977879;28;20035;-72
2022/09/28 06:02:05;;;;;;;1.40;0.25;;;8.10;99.90;;;;;;4985266;28;20402;-72
2022/09/28 06:04:31;;;;;;;0.73;0.10;;;8.00;99.90;;;;;;4974197;28;20039;-72
2022/09/28 06:06:58;;;;;;;5.22;0.40;;;8.00;99.90;;;;;;4980705;28;20038;-71
2022/09/28 06:09:23;;;;;;;1.83;0.20;;;8.00;99.90;;;;;;4980240;28;20043;-71
2022/09/28 06:11:50;;;;;;;0.75;0.30;;;8.00;99.90;;;;;;4978746;28;20077;-72
2022/09/28 06:14:15;;;;;;;2.05;0.10;;;8.00;99.90;;;;;;4979192;28;20038;-74
2022/09/28 06:16:41;;;;;;;1.48;0.20;;;8.00;99.90;;;;;;4978093;28;20085;-70
2022/09/28 06:19:08;;;;;;;1.90;0.20;;;8.00;99.90;;;;;;4979654;28;20449;-72
2022/09/28 06:21:34;;;;;;;1.58;0.20;;;8.10;99.90;;;;;;4982773;28;20038;-72
2022/09/28 06:24:00;;;;;;;0.90;0.20;;;8.10;99.90;;;;;;4979746;28;20420;-71
2022/09/28 06:26:26;;;;;;;2.30;0.20;;;8.20;99.90;;;;;;4982912;28;20042;-71
2022/09/28 06:28:51;;;;;;;0.77;0.20;;;8.20;99.90;;;;;;4979174;28;20507;-70
2022/09/28 06:31:18;;;;;;;1.40;0.20;;;8.20;99.90;;;;;;4978770;28;20157;-71
2022/09/28 06:33:45;;;;;;;0.93;0.20;;;8.30;99.90;;;;;;4979276;28;20518;-71
2022/09/28 06:36:10;;;;;;;2.13;0.30;;;8.30;99.90;;;;;;4987148;28;20487;-71
2022/09/28 06:38:36;;;;;;;3.30;1.35;;;8.30;99.90;;;;;;4987425;28;20045;-69
2022/09/28 06:41:02;;;;;;;4.35;0.50;;;8.30;99.90;;;;;;4980822;28;20046;-72
2022/09/28 06:43:28;;;;;;;0.70;0.43;;;8.40;99.90;;;;;;4978207;28;20398;-72
2022/09/28 06:45:54;;;;;;;2.75;0.20;;;8.40;99.90;;;;;;4975984;28;20505;-72
2022/09/28 06:48:19;;;;;;;1.02;0.30;;;8.40;99.90;;;;;;4972996;28;20097;-70
2022/09/28 06:50:46;;;;;;;4.53;0.40;;;8.40;99.90;;;;;;4973015;28;20039;-71
2022/09/28 06:53:13;;;;;;;0.28;0.13;;;8.50;99.90;;;;;;4970553;28;20077;-70
2022/09/28 06:55:40;;;;;;;1.30;0.38;;;8.50;99.90;;;;;;4978403;28;20054;-70
2022/09/28 06:58:09;;;;;;;1.13;0.63;;;8.50;99.90;;;;;;4974770;28;20043;-72
2022/09/28 07:00:37;;;;;;;5.25;0.40;;;8.60;99.90;;;;;;4978212;28;20031;-71
2022/09/28 07:03:04;;;;;;;2.53;0.38;;;8.70;99.90;;;;;;4974907;28;20117;-71
2022/09/28 07:05:33;;;;;;;1.80;0.32;;;8.80;99.90;;;;;;4974788;28;20030;-71
2022/09/28 07:08:00;;;;;;;1.48;0.65;;;8.80;99.90;;;;;;4980047;28;20117;-72
2022/09/28 07:10:27;;;;;;;4.88;0.40;;;8.90;99.90;;;;;;4976828;28;20034;-71
2022/09/28 07:12:55;;;;;;;0.90;0.25;;;9.00;99.90;;;;;;4981297;28;20038;-72
2022/09/28 07:15:21;;;;;;;1.95;0.47;;;9.10;99.90;;;;;;4977418;28;20054;-72
2022/09/28 07:17:47;;;;;;;2.05;0.30;;;9.20;99.90;;;;;;4980927;28;20031;-71
2022/09/28 07:20:13;;;;;;;0.85;0.20;;;9.30;99.90;;;;;;4974442;28;20372;-71
2022/09/28 07:22:39;;;;;;;1.58;0.30;;;9.40;99.90;;;;;;4984053;28;20376;-71
2022/09/28 07:25:08;;;;;;;0.93;0.22;;;9.40;99.90;;;;;;4976424;28;20351;-73
2022/09/28 07:27:37;;;;;;;3.53;0.30;;;9.50;99.90;;;;;;4983582;28;20038;-72
2022/09/28 07:30:06;;;;;;;5.10;0.28;;;9.60;99.90;;;;;;4975480;28;20058;-72
2022/09/28 07:32:33;;;;;;;0.70;0.25;;;9.70;99.90;;;;;;4983115;28;20126;-71
2022/09/28 07:35:00;;;;;;;2.50;0.43;;;9.80;99.90;;;;;;4982517;28;20026;-72
2022/09/28 07:37:25;;;;;;;3.08;0.88;;;9.90;99.90;;;;;;4978771;28;20058;-72
2022/09/28 07:42:35;;;;;;;0.75;0.63;;;10.10;99.90;;;;;;4978408;28;20497;-71
2022/09/28 07:45:02;;;;;;;5.88;0.50;;;10.20;99.90;;;;;;4984437;28;20126;-70
2022/09/28 07:47:27;;;;;;;0.65;0.30;;;10.20;99.90;;;;;;4979292;28;20128;-71
2022/09/28 07:49:55;;;;;;;1.42;0.25;;;10.30;99.90;;;;;;4977947;28;20491;-72
2022/09/28 07:52:27;;;;;;;3.50;0.22;;;10.30;99.90;;;;;;4977873;28;20046;-72
2022/09/28 07:54:53;;;;;;;0.90;0.20;;;10.40;99.90;;;;;;4968338;28;20062;-71
2022/09/28 07:57:20;;;;;;;0.85;0.25;;;10.50;99.90;;;;;;4980786;28;20418;-72
2022/09/28 07:59:47;;;;;;;4.80;0.38;;;10.50;99.90;;;;;;4977704;28;20121;-71
2022/09/28 08:02:13;;;;;;;0.50;0.10;;;10.60;99.90;;;;;;4974148;28;20078;-71
2022/09/28 08:04:39;;;;;;;0.57;0.20;;;10.60;99.90;;;;;;4977656;28;20486;-71
2022/09/28 08:07:11;;;;;;;1.17;0.20;;;10.70;99.90;;;;;;4974082;28;20046;-71
2022/09/28 08:09:36;;;;;;;0.25;0.10;;;10.80;99.90;;;;;;4986095;28;20117;-71
2022/09/28 08:12:03;;;;;;;0.65;0.10;;;10.80;99.90;;;;;;4981031;28;20578;-71
2022/09/28 08:14:32;;;;;;;3.17;0.28;;;10.90;99.90;;;;;;4981335;28;20049;-71
2022/09/28 08:16:58;;;;;;;0.45;0.10;;;11.00;99.90;;;;;;4978209;28;20039;-71
2022/09/28 08:19:24;;;;;;;2.10;0.20;;;11.00;99.90;;;;;;4980856;28;20737;-71
2022/09/28 08:21:50;;;;;;;2.88;0.10;;;11.10;99.90;;;;;;4976642;28;20031;-70
2022/09/28 08:24:19;;;;;;;1.95;0.13;;;11.20;99.90;;;;;;4981603;28;20413;-71
2022/09/28 08:26:46;;;;;;;1.15;0.10;;;11.20;99.90;;;;;;4984553;28;20491;-72
2022/09/28 08:29:11;;;;;;;0.50;0.00;;;11.30;99.90;;;;;;4982032;28;20042;-71
2022/09/28 08:31:37;;;;;;;2.10;0.13;;;11.30;99.90;;;;;;4979097;28;20041;-71
2022/09/28 08:34:02;;;;;;;1.67;0.60;;;11.40;99.90;;;;;;4981103;28;20050;-70
2022/09/28 08:36:28;;;;;;;0.73;0.10;;;11.50;99.90;;;;;;4979145;28;20038;-70
2022/09/28 08:38:54;;;;;;;12.70;0.30;;;11.60;99.90;;;;;;4981632;28;20051;-71
2022/09/28 08:41:43;;;;;;;0.80;0.10;;;11.70;99.90;;;;;;4978743;28;20085;-71
2022/09/28 08:44:22;;;;;;;1.65;0.28;;;11.80;99.90;;;;;;4979363;28;20442;-71
2022/09/28 08:46:58;;;;;;;0.63;0.10;;;11.90;99.90;;;;;;4978910;28;20047;-71
2022/09/28 08:49:42;;;;;;;0.40;0.10;;;11.90;99.90;;;;;;4982270;28;20070;-72
2022/09/28 08:52:25;;;;;;;0.75;0.10;;;12.00;99.90;;;;;;4975443;28;20093;-71
2022/09/28 08:54:59;;;;;;;0.28;0.10;;;11.90;99.90;;;;;;4978482;28;20048;-71
2022/09/28 08:57:43;;;;;;;0.50;0.20;;;12.10;99.90;;;;;;4979176;28;20507;-71
2022/09/28 09:00:19;;;;;;;2.03;0.10;;;12.20;99.90;;;;;;4974223;28;20047;-71
2022/09/28 09:02:46;;;;;;;0.68;0.13;;;12.20;99.90;;;;;;4981688;28;20715;-71
2022/09/28 09:05:15;;;;;;;0.20;0.10;;;12.30;99.90;;;;;;4982495;28;20081;-71
2022/09/28 09:08:06;;;;;;;2.40;0.13;;;12.30;99.90;;;;;;4979313;28;20026;-71
2022/09/28 09:10:46;;;;;;;;;;;12.40;99.90;;;;;;4980719;28;20031;-70
2022/09/28 09:13:30;;;;;;;1.20;0.75;;;12.50;99.90;;;;;;4973906;28;20024;-71
2022/09/28 09:15:59;;;;;;;0.30;0.05;;;12.60;99.90;;;;;;4980952;28;20489;-71
2022/09/28 09:18:36;;;;;;;0.00;0.00;;;12.60;99.90;;;;;;4979910;28;20097;-71
2022/09/28 09:21:20;;;;;;;0.75;0.30;;;12.70;99.90;;;;;;4969174;28;20049;-70
2022/09/28 09:24:00;;;;;;;1.13;0.13;;;12.80;99.90;;;;;;4977415;28;20035;-72
2022/09/28 09:26:38;;;;;;;3.95;0.20;;;12.90;99.90;;;;;;4980371;28;20078;-70
2022/09/28 09:29:29;;;;;;;0.38;0.10;;;13.00;99.90;;;;;;4973891;28;20054;-71
2022/09/28 09:31:56;;;;;;;0.30;0.10;;;13.10;99.90;;;;;;4979147;28;20046;-71
2022/09/28 09:34:40;;;;;;;0.70;0.22;;;13.20;99.90;;;;;;4978578;28;20038;-71
2022/09/28 09:37:09;;;;;;;1.45;0.20;;;13.20;99.90;;;;;;4975393;28;20045;-70
2022/09/28 09:39:59;;;;;;;1.00;0.20;;;13.30;99.90;;;;;;4979473;28;20069;-70
2022/09/28 09:42:28;;;;;;;1.90;0.10;;;13.40;99.90;;;;;;4981492;28;20044;-70
2022/09/28 09:45:01;;;;;;;1.75;0.08;;;13.50;99.90;;;;;;4978316;28;20489;-69
2022/09/28 09:47:46;;;;;;;1.38;0.20;;;13.50;99.90;;;;;;4979299;28;20045;-70
2022/09/28 09:50:38;;;;;;;1.77;0.10;;;13.50;99.90;;;;;;4975373;28;20124;-70
2022/09/28 09:53:40;;;;;;;0.90;0.10;;;13.50;99.90;;;;;;4969284;28;20085;-70
2022/09/28 09:56:24;;;;;;;0.13;0.05;;;13.50;99.90;;;;;;4945352;28;20043;-70
2022/09/28 09:58:54;;;;;;;4.10;0.10;;;13.60;99.90;;;;;;4978752;28;20398;-71
2022/09/28 10:01:34;;;;;;;0.45;0.00;;;13.50;99.90;;;;;;4978589;28;20050;-70
2022/09/28 10:04:05;;;;;;;0.10;0.00;;;13.40;99.90;;;;;;4973458;28;20042;-70
2022/09/28 10:06:32;;;;;;;;;;;13.40;99.90;;;;;;4977615;28;20038;-70
2022/09/28 10:09:05;;;;;;;0.28;0.03;;;13.50;99.90;;;;;;4976531;28;19914;-70
2022/09/28 10:11:42;;;;;;;0.22;0.00;;;13.50;99.90;;;;;;4979700;28;20039;-70
2022/09/28 10:14:21;;;;;;;3.10;0.00;;;13.50;99.90;;;;;;4984676;28;20403;-72
2022/09/28 10:16:49;;;;;;;1.63;0.47;;;13.60;99.90;;;;;;4982706;28;20034;-70
2022/09/28 10:19:19;;;;;;;1.08;0.10;;;13.60;99.90;;;;;;4983108;28;20066;-72
2022/09/28 10:21:47;;;;;;;0.70;0.00;;;13.70;99.90;;;;;;4985549;28;20065;-71
2022/09/28 10:24:24;;;;;;;0.05;0.00;;;13.80;99.90;;;;;;4977183;28;20042;-70
2022/09/28 10:26:53;;;;;;;0.10;0.00;;;13.90;99.90;;;;;;4981667;28;20478;-71
2022/09/28 10:29:23;;;;;;;0.25;0.00;;;14.00;99.90;;;;;;4979873;28;20491;-69
2022/09/28 10:31:51;;;;;;;1.13;0.00;;;14.00;99.90;;;;;;4973210;28;20049;-70
2022/09/28 10:34:23;;;;;;;5.70;0.55;;;14.10;99.90;;;;;;4976992;28;20125;-70
2022/09/28 10:37:02;;;;;;;0.13;0.03;;;14.30;99.90;;;;;;4979394;28;20082;-69
2022/09/28 10:39:57;;;;;;;0.00;0.00;;;14.30;99.90;;;;;;4960776;28;20086;-71
2022/09/28 10:42:27;;;;;;;0.13;0.00;;;14.30;99.90;;;;;;4970908;28;20038;-70
2022/09/28 10:44:54;;;;;;;2.80;0.13;;;14.60;99.90;;;;;;4979870;28;20065;-70
2022/09/28 10:47:23;;;;;;;0.10;0.10;;;14.70;99.90;;;;;;4979139;28;20043;-69
2022/09/28 10:49:50;;;;;;;0.00;0.00;;;14.80;99.90;;;;;;4983533;28;20057;-70
2022/09/28 10:52:34;;;;;;;2.53;0.10;;;15.00;99.90;;;;;;4973512;28;20789;-71
2022/09/28 10:55:00;;;;;;;2.13;0.00;;;15.10;99.90;;;;;;4975575;28;20073;-71
2022/09/28 10:57:35;;;;;;;0.13;0.00;;;15.10;99.90;;;;;;4990865;28;20031;-71
2022/09/28 11:00:03;;;;;;;0.32;0.00;;;15.20;99.90;;;;;;4985372;28;20524;-70
2022/09/28 11:02:35;;;;;;;0.10;0.00;;;15.20;99.90;;;;;;4986339;28;20122;-70
2022/09/28 11:05:04;;;;;;;0.22;0.00;;;15.10;99.90;;;;;;4972525;28;20035;-70
2022/09/28 11:07:32;;;;;;;1.00;0.08;;;15.00;99.90;;;;;;4991099;28;20486;-70
2022/09/28 11:10:00;;;;;;;0.22;0.10;;;14.90;99.90;;;;;;4978765;28;20030;-70
2022/09/28 11:12:42;;;;;;;1.48;0.10;;;14.80;99.90;;;;;;4987069;28;20038;-70
2022/09/28 11:15:17;;;;;;;0.50;0.00;;;14.80;99.90;;;;;;4976116;28;20039;-72
2022/09/28 11:17:43;;;;;;;0.73;0.08;;;14.70;99.90;;;;;;4981834;28;20034;-71
2022/09/28 11:20:24;;;;;;;8.07;0.20;;;14.60;99.90;;;;;;4978537;28;20041;-74
2022/09/28 11:22:58;;;;;;;1.48;0.25;;;14.50;99.90;;;;;;4986154;28;20038;-70
2022/09/28 11:25:27;;;;;;;0.40;0.05;;;14.50;99.90;;;;;;4974746;28;20034;-70
2022/09/28 11:27:52;;;;;;;1.15;0.00;;;14.30;99.90;;;;;;4980137;28;20038;-69
2022/09/28 11:30:31;;;;;;;0.75;0.10;;;14.20;99.90;;;;;;4979622;28;20030;-70
2022/09/28 11:33:10;;;;;;;0.77;0.10;;;14.10;99.90;;;;;;4976978;28;20066;-69
2022/09/28 11:35:49;;;;;;;1.73;0.00;;;14.30;99.90;;;;;;4984556;28;20089;-71
2022/09/28 11:38:20;;;;;;;0.03;0.00;;;14.40;99.90;;;;;;4978623;28;20038;-70
2022/09/28 11:41:27;;;;;;;0.47;0.10;;;14.40;99.90;;;;;;4986962;28;20038;-71
2022/09/28 11:44:04;;;;;;;0.10;0.00;;;14.50;99.90;;;;;;4978699;28;20562;-72
2022/09/28 11:46:50;;;;;;;0.90;0.00;;;14.60;99.90;;;;;;4967284;28;20085;-70
2022/09/28 11:49:19;;;;;;;1.38;0.05;;;14.80;99.90;;;;;;4975004;28;20056;-70
2022/09/28 11:51:49;;;;;;;0.00;0.00;;;14.80;99.90;;;;;;4975513;28;20502;-70
2022/09/28 11:54:32;;;;;;;0.43;0.00;;;14.80;99.90;;;;;;4973753;28;20062;-69
2022/09/28 11:57:01;;;;;;;0.85;0.10;;;14.70;99.90;;;;;;4975040;28;20078;-69
2022/09/28 11:59:38;;;;;;;1.70;0.00;;;14.70;99.90;;;;;;4973084;28;20046;-70
2022/09/28 12:02:28;;;;;;;0.43;0.00;;;14.80;99.90;;;;;;4974664;28;20038;-69
2022/09/28 12:05:12;;;;;;;1.00;0.10;;;14.90;99.90;;;;;;4983390;28;20034;-70
2022/09/28 12:07:48;;;;;;;0.00;0.00;;;14.90;99.90;;;;;;4966995;28;20558;-71
2022/09/28 12:10:34;;;;;;;0.17;0.00;;;14.90;99.90;;;;;;4976267;28;20034;-70
2022/09/28 12:13:15;;;;;;;0.15;0.00;;;15.00;99.90;;;;;;4976762;28;20026;-70
2022/09/28 12:15:51;;;;;;;0.00;0.00;;;15.00;99.90;;;;;;4977521;28;20066;-71
2022/09/28 12:18:29;;;;;;;0.32;0.00;;;15.00;99.90;;;;;;4978410;28;20050;-69
2022/09/28 12:21:09;;;;;;;0.00;0.00;;;15.00;99.90;;;;;;4979234;28;20085;-70
2022/09/28 12:23:40;;;;;;;0.98;0.05;;;14.70;99.90;;;;;;4975374;28;20414;-69
2022/09/28 12:26:22;;;;;;;2.72;0.00;;;14.60;99.90;;;;;;4986966;28;20121;-69
2022/09/28 12:28:52;;;;;;;1.08;0.00;;;14.50;99.90;;;;;;4977041;28;20123;-70
2022/09/28 12:31:27;;;;;;;2.90;0.10;;;14.40;99.90;;;;;;4981304;28;20039;-71
2022/09/28 12:33:53;;;;;;;1.45;0.00;;;14.30;99.90;;;;;;4980274;28;20031;-69
2022/09/28 12:36:31;;;;;;;0.00;0.00;;;14.20;99.90;;;;;;4982090;28;20049;-70
2022/09/28 12:38:58;;;;;;;0.00;0.00;;;14.20;99.90;;;;;;4968186;28;20114;-71
2022/09/28 12:41:27;;;;;;;1.90;0.17;;;14.00;99.90;;;;;;4980108;28;20046;-69
2022/09/28 12:43:53;;;;;;;0.00;0.00;;;13.80;99.90;;;;;;4989605;28;20046;-70
2022/09/28 12:46:47;;;;;;;0.00;0.00;;;13.70;99.90;;;;;;4981348;28;20538;-69
2022/09/28 12:49:22;;;;;;;2.30;0.20;;;13.60;99.90;;;;;;4977118;28;20043;-70
2022/09/28 12:51:58;;;;;;;0.35;0.00;;;13.50;99.90;;;;;;4980172;28;20077;-70
2022/09/28 12:54:33;;;;;;;0.30;0.03;;;13.40;99.90;;;;;;4974117;28;20384;-70
2022/09/28 12:57:27;;;;;;;0.80;0.47;;;13.40;99.90;;;;;;4979628;28;20046;-72
2022/09/28 13:00:01;;;;;;;2.03;0.00;;;13.30;99.90;;;;;;4973101;28;20034;-71
2022/09/28 13:03:17;;;;;;;0.75;0.10;;;13.20;99.90;;;;;;4976461;28;20039;-70
2022/09/28 13:06:14;;;;;;;0.15;0.00;;;13.20;99.90;;;;;;4941792;28;20054;-70
2022/09/28 13:09:01;;;;;;;0.70;0.00;;;13.10;99.90;;;;;;4977816;28;20031;-71
2022/09/28 13:11:37;;;;;;;0.57;0.55;;;13.10;99.90;;;;;;4974404;28;20035;-69
2022/09/28 13:14:36;;;;;;;0.30;0.08;;;13.10;99.90;;;;;;4977423;28;20130;-71
2022/09/28 13:17:30;;;;;;;0.40;0.00;;;13.10;99.90;;;;;;4981650;28;20030;-72
2022/09/28 13:20:14;;;;;;;0.22;0.10;;;13.10;99.90;;;;;;4974277;28;20039;-70
2022/09/28 13:22:53;;;;;;;1.85;0.10;;;13.10;99.90;;;;;;4977089;28;20740;-71
2022/09/28 13:25:24;;;;;;;2.20;0.10;;;13.10;99.90;;;;;;4980752;28;20030;-71